Time;durP1;ratioP1;P1;durP2;ratioP2;P2;SDS_P1;SDS_P2;PMS_P1;PMS_P2;Temp;Humidity;BMP_temperature;BMP_pressure;BME280_temperature;BME280_humidity;BME280_pressure;Samples;Min_cycle;Max_cycle;Signal;HPM_P1;HPM_P2
2023/01/03 00:02:03;;;;;;;29.60;17.00;;;6.70;99.90;;;-144.05;79.64;125687.94;5057763;28;20025;-75
2023/01/03 00:04:30;;;;;;;29.15;17.38;;;6.70;99.90;;;-144.05;80.08;125687.94;5056428;28;20036;-76
2023/01/03 00:06:56;;;;;;;31.52;17.15;;;6.70;99.90;;;-144.05;79.82;125687.94;5057617;28;20029;-77
2023/01/03 00:09:24;;;;;;;31.27;16.80;;;6.70;99.90;;;-144.05;80.29;125687.94;5056436;28;20476;-76
2023/01/03 00:14:42;;;;;;;31.42;16.90;;;6.90;99.90;;;-144.05;79.52;125687.94;5057081;28;20036;-75
2023/01/03 00:17:11;;;;;;;27.55;16.25;;;6.90;99.90;;;-144.05;79.10;125687.94;5055319;28;20036;-77
2023/01/03 00:19:43;;;;;;;26.50;15.20;;;6.90;99.90;;;-144.05;79.05;125687.94;5055096;28;20040;-76
2023/01/03 00:22:11;;;;;;;24.67;14.07;;;6.90;99.90;;;-144.05;79.42;125687.94;5055707;28;20053;-75
2023/01/03 00:24:37;;;;;;;25.13;13.82;;;6.90;99.90;;;-144.05;79.47;125687.94;5056037;28;20098;-76
2023/01/03 00:27:03;;;;;;;27.38;14.32;;;6.90;99.90;;;-144.05;79.40;125687.94;5057085;28;20103;-74
2023/01/03 00:29:30;;;;;;;23.23;12.90;;;6.90;99.90;;;-144.05;78.67;125687.94;5054343;28;20308;-77
2023/01/03 00:31:56;;;;;;;25.73;12.40;;;6.70;99.90;;;-144.05;78.98;125687.94;5054701;28;20040;-77
2023/01/03 00:34:22;;;;;;;29.73;13.13;;;6.60;99.90;;;-144.05;78.88;125687.94;5054128;28;20025;-75
2023/01/03 00:36:48;;;;;;;21.83;11.57;;;6.60;99.90;;;-144.05;78.87;125687.94;5055504;28;20025;-77
2023/01/03 00:39:14;;;;;;;18.13;11.63;;;6.50;99.90;;;-144.05;79.65;125687.94;5055183;28;20025;-77
2023/01/03 00:41:40;;;;;;;19.60;10.85;;;6.50;99.90;;;-144.05;79.63;125687.94;5054349;28;20135;-76
2023/01/03 00:44:08;;;;;;;20.20;11.27;;;6.40;99.90;;;-144.05;79.49;125687.94;5055057;28;20032;-77
2023/01/03 00:46:35;;;;;;;20.85;9.95;;;6.50;99.90;;;-144.05;79.02;125687.94;5055568;28;20409;-75
2023/01/03 00:49:03;;;;;;;16.92;9.07;;;6.40;99.90;;;-144.05;79.02;125687.94;5054187;28;20082;-76
2023/01/03 00:51:34;;;;;;;26.10;10.18;;;6.50;99.90;;;-144.05;78.30;125687.94;5053920;28;20021;-78
2023/01/03 00:54:03;;;;;;;15.05;8.50;;;6.40;99.90;;;-144.05;78.25;125687.94;5053926;28;20029;-77
2023/01/03 00:56:38;;;;;;;20.02;8.60;;;6.40;99.90;;;-144.05;78.56;125687.94;5055626;28;20029;-77
2023/01/03 00:59:06;;;;;;;19.08;7.68;;;6.40;99.90;;;-144.05;78.26;125687.94;5055599;28;20135;-77
2023/01/03 01:01:44;;;;;;;14.68;7.07;;;6.30;99.90;;;-144.05;78.21;125687.94;5055948;28;20112;-78
2023/01/03 01:04:31;;;;;;;12.73;6.50;;;6.30;99.90;;;-144.05;78.16;125687.94;5054259;28;20102;-77
2023/01/03 01:07:03;;;;;;;11.02;6.93;;;6.30;99.90;;;-144.05;78.18;125687.94;5053392;28;20032;-77
2023/01/03 01:09:35;;;;;;;9.82;6.03;;;6.30;99.90;;;-144.05;78.17;125687.94;5055161;28;20029;-77
2023/01/03 01:12:04;;;;;;;16.13;7.57;;;6.30;99.90;;;-144.05;78.60;125687.94;5055900;28;20036;-77
2023/01/03 01:14:32;;;;;;;14.93;6.18;;;6.30;99.90;;;-144.05;77.88;125687.94;5056213;28;20031;-77
2023/01/03 01:17:06;;;;;;;9.57;6.40;;;6.30;99.90;;;-144.05;78.00;125687.94;5054375;28;20033;-78
2023/01/03 01:19:42;;;;;;;13.07;6.38;;;6.30;99.90;;;-144.05;77.38;125687.94;5055757;28;20025;-77
2023/01/03 01:22:10;;;;;;;11.43;6.10;;;6.30;99.90;;;-144.05;77.54;125687.94;5054599;28;20063;-77
2023/01/03 01:24:37;;;;;;;10.50;5.55;;;6.20;99.90;;;-144.05;77.58;125687.94;5055792;28;20437;-77
2023/01/03 01:27:03;;;;;;;17.58;6.38;;;6.20;99.90;;;-144.05;77.93;125687.94;5056025;28;20091;-75
2023/01/03 01:29:29;;;;;;;11.02;5.75;;;6.10;99.90;;;-144.05;78.20;125687.94;5054433;28;20520;-78
2023/01/03 01:31:55;;;;;;;10.93;5.70;;;6.20;99.90;;;-144.05;77.85;125687.94;5053726;28;20064;-76
2023/01/03 01:34:22;;;;;;;10.32;5.20;;;6.20;99.90;;;-144.05;78.28;125687.94;5055543;28;20063;-76
2023/01/03 01:36:48;;;;;;;11.43;5.60;;;6.20;99.90;;;-144.05;78.48;125687.94;5054626;28;20079;-77
2023/01/03 01:39:23;;;;;;;13.98;5.03;;;6.30;99.90;;;-144.05;78.22;125687.94;5055452;28;20067;-77
2023/01/03 01:44:53;;;;;;;13.02;5.88;;;6.30;99.90;;;-144.05;77.31;125687.94;5055902;28;20131;-76
2023/01/03 01:47:37;;;;;;;9.40;4.60;;;6.20;99.90;;;-144.05;76.81;125687.94;5055751;28;20033;-77
2023/01/03 01:50:23;;;;;;;12.18;5.32;;;6.10;99.90;;;-144.05;76.88;125687.94;5057047;28;20033;-76
2023/01/03 01:53:17;;;;;;;11.07;4.78;;;6.00;99.90;;;-144.05;77.09;125687.94;5071013;28;20025;-77
2023/01/03 01:56:07;;;;;;;8.70;4.40;;;6.00;99.90;;;-144.05;77.29;125687.94;5054562;28;20036;-75
2023/01/03 01:58:41;;;;;;;9.35;5.20;;;5.90;99.90;;;-144.05;78.20;125687.94;5053157;28;20097;-77
2023/01/03 02:01:12;;;;;;;10.13;5.20;;;5.90;99.90;;;-144.05;77.96;125687.94;5053114;28;20097;-76
2023/01/03 02:03:45;;;;;;;12.27;5.57;;;5.90;99.90;;;-144.05;77.92;125687.94;5054563;28;20427;-76
2023/01/03 02:06:15;;;;;;;10.07;5.15;;;5.90;99.90;;;-144.05;77.50;125687.94;5052856;28;20025;-77
2023/01/03 02:08:41;;;;;;;12.10;5.45;;;5.80;99.90;;;-144.05;77.54;125687.94;5054175;28;20035;-77
2023/01/03 02:11:44;;;;;;;10.75;5.45;;;5.70;99.90;;;-144.05;78.00;125687.94;5054049;28;20037;-76
2023/01/03 02:15:18;;;;;;;14.05;6.90;;;5.70;99.90;;;-144.05;77.66;125687.94;5054421;28;20032;-76
2023/01/03 02:18:33;;;;;;;10.32;5.50;;;5.70;99.90;;;-144.05;77.16;125687.94;5052761;28;20052;-76
2023/01/03 02:21:37;;;;;;;14.82;6.65;;;5.70;99.90;;;-144.05;77.68;125687.94;5052575;28;20116;-75
2023/01/03 02:25:05;;;;;;;17.35;7.10;;;5.70;99.90;;;-144.05;77.79;125687.94;5053010;28;20063;-77
2023/01/03 02:28:14;;;;;;;15.15;7.22;;;5.80;99.90;;;-144.05;76.94;125687.94;5053713;28;20035;-76
2023/01/03 02:31:01;;;;;;;13.73;6.90;;;5.80;99.90;;;-144.05;76.96;125687.94;5052937;28;20045;-77
2023/01/03 02:34:27;;;;;;;17.98;6.57;;;5.80;99.90;;;-144.05;76.97;125687.94;5054718;28;20178;-76
2023/01/03 02:37:21;;;;;;;15.15;6.32;;;5.90;99.90;;;-144.05;76.49;125687.94;5054131;28;20111;-76
2023/01/03 02:40:16;;;;;;;15.07;6.32;;;5.90;99.90;;;-144.05;76.08;125687.94;5053598;28;20086;-77
2023/01/03 02:43:04;;;;;;;11.73;6.45;;;5.80;99.90;;;-144.05;75.83;125687.94;5054185;28;20025;-77
2023/01/03 02:46:34;;;;;;;10.80;6.53;;;5.70;99.90;;;-144.05;76.18;125687.94;5054459;28;20028;-77
2023/01/03 02:49:11;;;;;;;11.70;7.18;;;5.70;99.90;;;-144.05;77.39;125687.94;5053385;28;20056;-76
2023/01/03 02:51:50;;;;;;;13.30;7.28;;;5.70;99.90;;;-144.05;77.18;125687.94;5055965;28;20025;-77
2023/01/03 02:54:29;;;;;;;12.55;7.28;;;5.80;99.90;;;-144.05;77.10;125687.94;5055478;28;20029;-78
2023/01/03 02:57:13;;;;;;;15.82;7.28;;;5.80;99.90;;;-144.05;77.16;125687.94;5055846;28;20037;-77
2023/01/03 03:00:00;;;;;;;14.48;7.18;;;5.80;99.90;;;-144.05;76.68;125687.94;5052699;28;20545;-78
2023/01/03 03:02:34;;;;;;;16.38;6.35;;;5.80;99.90;;;-144.05;76.55;125687.94;5054108;28;20033;-77
2023/01/03 03:05:09;;;;;;;15.77;6.95;;;5.70;99.90;;;-144.05;76.92;125687.94;5053784;28;20033;-76
2023/01/03 03:07:39;;;;;;;14.68;7.25;;;5.70;99.90;;;-144.05;76.88;125687.94;5052992;28;20099;-77
2023/01/03 03:13:12;;;;;;;15.25;6.90;;;5.80;99.90;;;-144.05;76.84;125687.94;5053744;28;20044;-77
2023/01/03 03:16:46;;;;;;;15.02;7.07;;;5.90;99.90;;;-144.05;76.50;125687.94;5055439;28;20559;-76
2023/01/03 03:19:12;;;;;;;11.80;6.78;;;6.00;99.90;;;-144.05;75.73;125687.94;5075992;22;20099;-82
2023/01/03 03:30:16;;;;;;;12.00;6.70;;;6.20;99.90;;;-144.05;73.32;125687.94;5056118;28;20079;-82
2023/01/03 03:32:49;;;;;;;14.05;7.30;;;6.20;99.90;;;-144.05;73.32;125687.94;5053875;28;20032;-80
2023/01/03 03:35:23;;;;;;;12.05;6.57;;;6.30;99.90;;;-144.05;73.32;125687.94;5053988;28;20101;-80
2023/01/03 03:37:57;;;;;;;14.68;7.50;;;6.30;99.90;;;-144.05;73.65;125687.94;5053600;28;20021;-82
2023/01/03 03:46:43;;;;;;;12.20;7.37;;;6.40;99.90;;;-144.05;73.23;125687.94;5055819;28;20095;-77
2023/01/03 03:49:38;;;;;;;15.10;7.55;;;6.30;99.90;;;-144.05;73.31;125687.94;5053150;28;20496;-81
2023/01/03 03:52:14;;;;;;;14.65;8.30;;;6.30;99.90;;;-144.05;73.06;125687.94;5053179;28;20025;-81
2023/01/03 03:54:49;;;;;;;19.85;8.85;;;6.20;99.90;;;-144.05;73.40;125687.94;5052983;28;20124;-81
2023/01/03 03:57:39;;;;;;;11.57;7.57;;;6.10;99.90;;;-144.05;74.33;125687.94;5052954;28;20041;-81
2023/01/03 04:00:16;;;;;;;14.75;8.85;;;6.20;99.90;;;-144.05;73.97;125687.94;5052786;28;20036;-80
2023/01/03 04:02:48;;;;;;;16.55;9.32;;;6.20;99.90;;;-144.05;74.42;125687.94;5053403;28;20025;-81
2023/01/03 04:05:23;;;;;;;19.02;10.30;;;6.10;99.90;;;-144.05;74.47;125687.94;5053087;28;20036;-82
2023/01/03 04:07:50;;;;;;;15.15;9.48;;;6.10;99.90;;;-144.05;74.61;125687.94;5053319;28;20075;-81
2023/01/03 04:10:19;;;;;;;14.40;9.68;;;6.00;99.90;;;-144.05;75.00;125687.94;5053237;28;20063;-81
2023/01/03 04:12:48;;;;;;;21.65;10.27;;;5.90;99.90;;;-144.05;75.49;125687.94;5053382;28;20036;-81
2023/01/03 04:15:15;;;;;;;20.73;10.70;;;5.90;99.90;;;-144.05;75.77;125687.94;5058241;28;20481;-82
2023/01/03 04:17:42;;;;;;;19.40;10.45;;;5.90;99.90;;;-144.05;75.46;125687.94;5056179;28;20037;-81
2023/01/03 04:20:09;;;;;;;19.17;11.93;;;5.80;99.90;;;-144.05;75.82;125687.94;5053769;28;20445;-82
2023/01/03 04:22:36;;;;;;;22.75;12.68;;;5.80;99.90;;;-144.05;75.30;125687.94;5054136;28;20029;-80
2023/01/03 04:25:04;;;;;;;21.30;11.88;;;5.80;99.90;;;-144.05;74.86;125687.94;5054028;28;20067;-82
2023/01/03 04:27:30;;;;;;;20.58;10.88;;;5.80;99.90;;;-144.05;74.96;125687.94;5052693;28;20108;-82
2023/01/03 04:29:59;;;;;;;19.88;13.27;;;5.70;99.90;;;-144.05;75.38;125687.94;5054029;28;20106;-82
2023/01/03 04:32:24;;;;;;;19.67;12.73;;;5.60;99.90;;;-144.05;74.91;125687.94;5056219;28;20089;-81
2023/01/03 04:34:50;;;;;;;23.40;13.10;;;5.70;99.90;;;-144.05;74.60;125687.94;5052909;28;20033;-81
2023/01/03 04:37:16;;;;;;;21.90;12.85;;;5.60;99.90;;;-144.05;74.66;125687.94;5052314;28;20377;-80
2023/01/03 04:39:42;;;;;;;21.50;12.93;;;5.50;99.90;;;-144.05;74.65;125687.94;5053476;28;20119;-80
2023/01/03 04:44:53;;;;;;;20.85;11.90;;;5.40;99.90;;;-144.05;74.69;125687.94;5053952;28;20044;-82
2023/01/03 04:47:19;;;;;;;21.33;12.32;;;5.30;99.90;;;-144.05;75.77;125687.94;5053794;28;20060;-81
2023/01/03 04:49:47;;;;;;;25.88;13.25;;;5.30;99.90;;;-144.05;76.18;125687.94;5051980;28;20119;-82
2023/01/03 04:52:15;;;;;;;19.45;10.65;;;5.30;99.90;;;-144.05;75.85;125687.94;5052408;28;20025;-81
2023/01/03 04:54:41;;;;;;;19.83;11.23;;;5.30;99.90;;;-144.05;76.19;125687.94;5052658;28;20103;-82
2023/01/03 04:57:09;;;;;;;23.02;12.07;;;5.30;99.90;;;-144.05;76.24;125687.94;5053690;28;20161;-82
2023/01/03 04:59:36;;;;;;;16.75;11.48;;;5.30;99.90;;;-144.05;75.80;125687.94;5052616;28;20437;-80
2023/01/03 05:02:03;;;;;;;20.67;10.95;;;5.30;99.90;;;-144.05;75.74;125687.94;5052485;28;20029;-80
2023/01/03 05:04:29;;;;;;;21.55;10.98;;;5.20;99.90;;;-144.05;75.81;125687.94;5052476;28;20033;-82
2023/01/03 05:06:55;;;;;;;18.52;11.48;;;5.20;99.90;;;-144.05;76.42;125687.94;5054468;28;20090;-79
2023/01/03 05:09:22;;;;;;;20.55;11.80;;;5.30;99.90;;;-144.05;76.86;125687.94;5052312;28;20028;-81
2023/01/03 05:11:52;;;;;;;21.90;12.38;;;5.30;99.90;;;-144.05;77.41;125687.94;5052216;28;20039;-81
2023/01/03 05:18:33;;;;;;;20.38;12.57;;;5.50;99.90;;;-144.05;76.41;125687.94;5034071;28;20114;-82
2023/01/03 05:29:14;;;;;;;23.60;10.55;;;5.50;99.90;;;-144.05;76.34;125687.94;5050379;28;20040;-84
2023/01/03 05:32:01;;;;;;;27.08;11.63;;;5.60;99.90;;;-144.05;76.09;125687.94;5035515;28;20127;-84
2023/01/03 05:34:27;;;;;;;18.90;11.43;;;5.70;99.90;;;-144.05;76.52;125687.94;5053025;28;20063;-86
2023/01/03 05:36:54;;;;;;;22.55;11.52;;;5.70;99.90;;;-144.05;76.15;125687.94;5053381;28;20025;-84
2023/01/03 05:39:50;;;;;;;19.17;10.65;;;5.70;99.90;;;-144.05;76.14;125687.94;5053226;28;20108;-84
2023/01/03 05:42:16;;;;;;;17.17;11.02;;;5.80;99.90;;;-144.05;76.34;125687.94;5052645;28;20029;-82
2023/01/03 05:44:41;;;;;;;20.02;11.75;;;5.80;99.90;;;-144.05;76.20;125687.94;5053228;28;20033;-85
2023/01/03 05:47:07;;;;;;;17.05;10.32;;;5.80;99.90;;;-144.05;75.64;125687.94;5053196;28;20083;-87
2023/01/03 05:49:34;;;;;;;15.13;9.93;;;5.80;99.90;;;-144.05;75.73;125687.94;5054022;28;20057;-86
2023/01/03 05:52:00;;;;;;;16.83;10.48;;;5.80;99.90;;;-144.05;75.42;125687.94;5054967;28;20035;-87
2023/01/03 05:54:26;;;;;;;15.30;8.98;;;5.70;99.90;;;-144.05;75.15;125687.94;5054711;28;20124;-85
2023/01/03 05:56:52;;;;;;;16.60;10.20;;;5.60;99.90;;;-144.05;75.36;125687.94;5053626;28;20060;-87
2023/01/03 05:59:19;;;;;;;17.58;10.52;;;5.50;99.90;;;-144.05;76.22;125687.94;5052659;28;20051;-86
2023/01/03 06:01:45;;;;;;;18.02;9.45;;;5.50;99.90;;;-144.05;76.69;125687.94;5054051;28;20029;-85
2023/01/03 06:04:11;;;;;;;14.52;9.65;;;5.40;99.90;;;-144.05;76.83;125687.94;5053509;28;20037;-87
2023/01/03 06:06:37;;;;;;;19.15;10.10;;;5.30;99.90;;;-144.05;76.88;125687.94;5053624;28;20033;-88
2023/01/03 06:09:03;;;;;;;22.40;9.93;;;5.40;99.90;;;-144.05;77.58;125687.94;5052128;28;20029;-83
2023/01/03 06:11:29;;;;;;;21.13;9.77;;;5.40;99.90;;;-144.05;77.24;125687.94;5051708;28;20124;-83
2023/01/03 06:13:55;;;;;;;19.60;10.68;;;5.40;99.90;;;-144.05;78.08;125687.94;5052189;28;20175;-85
2023/01/03 06:19:07;;;;;;;15.10;9.05;;;5.30;99.90;;;-144.05;76.86;125687.94;5053773;28;20055;-86
2023/01/03 06:21:34;;;;;;;23.08;11.00;;;5.30;99.90;;;-144.05;77.01;125687.94;5054385;28;20032;-83
2023/01/03 06:24:00;;;;;;;22.33;10.40;;;5.30;99.90;;;-144.05;77.38;125687.94;5052814;28;20029;-85
2023/01/03 06:26:26;;;;;;;20.42;10.55;;;5.40;99.90;;;-144.05;78.10;125687.94;5052942;28;20029;-86
2023/01/03 06:28:52;;;;;;;18.77;11.18;;;5.30;99.90;;;-144.05;78.31;125687.94;5052439;28;20032;-86
2023/01/03 06:31:19;;;;;;;23.08;9.93;;;5.30;99.90;;;-144.05;78.25;125687.94;5053862;28;20035;-85
2023/01/03 06:33:47;;;;;;;22.70;11.32;;;5.30;99.90;;;-144.05;79.28;125687.94;5053035;28;20029;-88
2023/01/03 06:36:18;;;;;;;18.98;10.25;;;5.30;99.90;;;-144.05;78.77;125687.94;5053820;28;20049;-85
2023/01/03 06:38:44;;;;;;;18.73;9.98;;;5.30;99.90;;;-144.05;78.62;125687.94;5052346;28;20033;-85
2023/01/03 06:41:13;;;;;;;19.58;10.10;;;5.30;99.90;;;-144.05;78.87;125687.94;5053163;28;20032;-87
2023/01/03 06:43:40;;;;;;;19.08;10.60;;;5.30;99.90;;;-144.05;79.55;125687.94;5052760;28;20029;-87
2023/01/03 06:54:36;;;;;;;15.95;9.35;;;5.30;99.90;;;-144.05;78.73;125687.94;5053469;28;20526;-85
2023/01/03 06:57:04;;;;;;;17.67;8.43;;;5.20;99.90;;;-144.05;78.59;125687.94;5051846;28;20033;-84
2023/01/03 06:59:29;;;;;;;16.02;9.57;;;5.20;99.90;;;-144.05;78.88;125687.94;5051470;28;20025;-84
2023/01/03 07:01:55;;;;;;;18.05;9.75;;;5.10;99.90;;;-144.05;79.01;125687.94;5051228;28;20036;-86
2023/01/03 07:04:24;;;;;;;15.23;8.75;;;5.10;99.90;;;-144.05;79.54;125687.94;5052050;28;20037;-84
2023/01/03 07:06:50;;;;;;;15.40;8.88;;;5.20;99.90;;;-144.05;79.54;125687.94;5051841;28;20032;-84
2023/01/03 07:09:17;;;;;;;20.42;9.80;;;5.20;99.90;;;-144.05;79.25;125687.94;5052680;28;20049;-81
2023/01/03 07:11:43;;;;;;;22.13;8.50;;;5.30;99.90;;;-144.05;79.26;125687.94;5051103;28;20123;-83
2023/01/03 07:14:11;;;;;;;14.40;8.15;;;5.30;99.90;;;-144.05;78.78;125687.94;5051619;28;20503;-84
2023/01/03 07:16:43;;;;;;;16.30;7.32;;;5.40;99.90;;;-144.05;79.02;125687.94;5052244;28;20048;-85
2023/01/03 07:19:18;;;;;;;13.38;7.72;;;5.50;99.90;;;-144.05;78.67;125687.94;5052945;28;20499;-84
2023/01/03 07:21:45;;;;;;;;;;;5.60;99.90;;;-144.05;78.29;125687.94;5074361;28;20028;-81
2023/01/03 07:24:18;;;;;;;14.90;7.70;;;5.60;99.90;;;-144.05;78.13;125687.94;5062752;28;20269;-84
2023/01/03 07:26:44;;;;;;;18.13;7.40;;;5.70;99.90;;;-144.05;78.15;125687.94;5052714;28;20029;-84
2023/01/03 07:29:10;;;;;;;15.70;7.75;;;5.70;99.90;;;-144.05;78.53;125687.94;5052106;28;20107;-86
2023/01/03 07:31:41;;;;;;;14.52;7.35;;;5.80;99.90;;;-144.05;78.26;125687.94;5051287;28;20132;-86
2023/01/03 07:34:08;;;;;;;16.58;7.43;;;5.90;99.90;;;-144.05;77.68;125687.94;5051120;28;20033;-84
2023/01/03 07:36:34;;;;;;;12.88;7.20;;;5.80;99.90;;;-144.05;77.69;125687.94;5050974;28;20024;-86
2023/01/03 07:39:00;;;;;;;12.88;7.57;;;5.90;99.90;;;-144.05;77.52;125687.94;5050561;28;20500;-82
2023/01/03 07:43:35;;;;;;;14.73;7.13;;;5.90;99.90;;;-144.05;77.58;125687.94;5051318;28;20385;-83
2023/01/03 07:44:11;;;;;;;18.25;8.45;;;5.90;99.90;;;-144.05;77.88;125687.94;5051927;28;20040;-84
2023/01/03 07:46:37;;;;;;;16.25;6.85;;;6.00;99.90;;;-144.05;77.76;125687.94;5052512;28;20037;-84
2023/01/03 07:49:03;;;;;;;13.75;7.05;;;6.00;99.90;;;-144.05;77.31;125687.94;5050442;28;20029;-83
2023/01/03 07:51:29;;;;;;;14.65;6.93;;;6.10;99.90;;;-144.05;77.14;125687.94;5052200;28;20025;-84
2023/01/03 07:53:55;;;;;;;18.55;6.72;;;6.10;99.90;;;-144.05;77.03;125687.94;5051005;28;20025;-84
2023/01/03 07:56:23;;;;;;;13.38;6.10;;;6.10;99.90;;;-144.05;76.94;125687.94;5051022;28;20025;-84
2023/01/03 07:58:50;;;;;;;10.65;6.25;;;6.10;99.90;;;-144.05;76.99;125687.94;5050764;28;20029;-84
2023/01/03 08:01:26;;;;;;;12.82;6.55;;;6.10;99.90;;;-144.05;77.43;125687.94;5055134;28;20087;-84
2023/01/03 08:03:53;;;;;;;11.57;5.47;;;6.20;99.90;;;-144.05;76.81;125687.94;5054371;28;20029;-84
2023/01/03 08:06:23;;;;;;;14.88;5.90;;;6.20;99.90;;;-144.05;76.50;125687.94;5054199;28;20484;-84
2023/01/03 08:14:21;;;;;;;12.65;5.03;;;6.40;99.90;;;-144.05;76.42;125687.94;5055667;28;20040;-84
2023/01/03 08:16:47;;;;;;;10.20;5.25;;;6.50;99.90;;;-144.05;76.29;125687.94;5054488;28;20025;-84
2023/01/03 08:19:13;;;;;;;10.25;5.25;;;6.50;99.90;;;-144.05;76.50;125687.94;5054959;28;20091;-84
2023/01/03 08:21:38;;;;;;;8.57;4.80;;;6.50;99.90;;;-144.05;75.65;125687.94;5054262;28;20112;-83
2023/01/03 08:24:05;;;;;;;11.02;5.65;;;6.60;99.90;;;-144.05;75.66;125687.94;5054330;28;20423;-82
2023/01/03 08:26:31;;;;;;;10.93;4.85;;;6.60;99.90;;;-144.05;75.42;125687.94;5054846;28;20489;-86
2023/01/03 08:28:56;;;;;;;8.55;4.13;;;6.60;99.90;;;-144.05;75.53;125687.94;5055557;28;20032;-84
2023/01/03 08:31:30;;;;;;;8.45;3.58;;;6.60;99.90;;;-144.05;75.74;125687.94;5056676;28;20500;-86
2023/01/03 08:34:05;;;;;;;8.50;4.75;;;6.70;99.90;;;-144.05;75.89;125687.94;5055440;28;20492;-83
2023/01/03 08:36:44;;;;;;;11.00;3.78;;;6.80;99.90;;;-144.05;74.96;125687.94;5054978;28;20044;-85
2023/01/03 08:39:19;;;;;;;8.73;4.10;;;7.00;99.90;;;-144.05;74.39;125687.94;5054274;28;20552;-86
2023/01/03 08:41:58;;;;;;;9.27;3.97;;;7.20;99.90;;;-144.05;73.69;125687.94;5054471;28;20071;-83
2023/01/03 08:44:25;;;;;;;12.02;3.72;;;7.40;99.90;;;-144.05;72.53;125687.94;5054590;28;20543;-84
2023/01/03 08:46:56;;;;;;;8.63;3.63;;;7.70;99.90;;;-144.05;72.00;125687.94;5055459;28;20060;-84
2023/01/03 08:49:22;;;;;;;8.70;3.45;;;7.80;99.90;;;-144.05;70.71;125687.94;5055289;28;20029;-86
2023/01/03 08:51:48;;;;;;;7.43;3.45;;;8.00;99.90;;;-144.05;70.19;125687.94;5054064;28;20044;-85
2023/01/03 08:54:14;;;;;;;8.48;3.80;;;8.00;99.90;;;-144.05;70.78;125687.94;5055369;28;20029;-84
2023/01/03 08:56:40;;;;;;;9.48;3.35;;;8.10;99.90;;;-144.05;70.15;125687.94;5054489;28;20025;-83
2023/01/03 08:59:07;;;;;;;5.22;3.03;;;8.20;99.90;;;-144.05;69.47;125687.94;5054192;28;20045;-84
2023/01/03 09:01:33;;;;;;;5.43;2.97;;;8.30;99.90;;;-144.05;68.98;125687.94;5055468;28;20040;-81
2023/01/03 09:03:59;;;;;;;6.97;3.40;;;8.50;99.90;;;-144.05;67.74;125687.94;5054315;28;20028;-81
2023/01/03 09:06:25;;;;;;;7.55;3.03;;;8.50;99.90;;;-144.05;69.09;125687.94;5055457;28;20465;-82
2023/01/03 09:08:50;;;;;;;8.82;2.83;;;8.40;99.90;;;-144.05;69.13;125687.94;5054167;28;20028;-84
2023/01/03 09:11:16;;;;;;;8.43;2.97;;;8.40;99.90;;;-144.05;69.08;125687.94;5052713;28;20021;-82
2023/01/03 09:13:42;;;;;;;5.07;2.55;;;8.30;99.90;;;-144.05;69.64;125687.94;5052943;28;20036;-83
2023/01/03 09:16:12;;;;;;;9.90;2.75;;;8.20;99.90;;;-144.05;69.35;125687.94;5053819;28;20033;-83
2023/01/03 09:18:40;;;;;;;8.57;2.17;;;8.20;99.90;;;-144.05;69.89;125687.94;5065297;28;20104;-81
2023/01/03 09:21:07;;;;;;;5.25;2.20;;;8.20;99.90;;;-144.05;69.65;125687.94;5070579;28;20041;-83
2023/01/03 09:23:35;;;;;;;6.60;2.20;;;8.40;99.90;;;-144.05;68.60;125687.94;5052358;28;20492;-82
2023/01/03 09:26:02;;;;;;;5.15;2.10;;;8.40;99.90;;;-144.05;68.32;125687.94;5052575;28;20033;-82
2023/01/03 09:28:29;;;;;;;4.25;2.05;;;8.30;99.90;;;-144.05;68.73;125687.94;5053297;28;20033;-81
2023/01/03 09:30:55;;;;;;;9.65;2.88;;;8.30;99.90;;;-144.05;68.25;125687.94;5052822;28;20032;-82
2023/01/03 09:33:21;;;;;;;5.65;2.45;;;8.50;99.90;;;-144.05;67.25;125687.94;5054176;28;20033;-82
2023/01/03 09:35:47;;;;;;;6.55;1.95;;;8.70;99.90;;;-144.05;67.12;125687.94;5054574;28;20087;-82
2023/01/03 09:38:13;;;;;;;4.47;2.20;;;8.80;99.90;;;-144.05;66.95;125687.94;5054010;28;20049;-82
2023/01/03 09:40:45;;;;;;;4.53;2.33;;;8.90;99.90;;;-144.05;67.64;125687.94;5052388;28;20362;-82
2023/01/03 09:43:21;;;;;;;4.57;1.90;;;8.70;99.90;;;-144.05;68.12;125687.94;5052282;28;20206;-84
2023/01/03 09:45:57;;;;;;;4.95;1.90;;;8.60;99.90;;;-144.05;67.89;125687.94;5053073;28;20028;-81
2023/01/03 09:48:40;;;;;;;5.13;2.15;;;8.50;99.90;;;-144.05;68.03;125687.94;5052522;28;20127;-82
2023/01/03 10:06:11;;;;;;;4.72;2.05;;;9.20;99.90;;;-144.05;67.13;125687.94;5053648;28;20166;-84
2023/01/03 10:09:03;;;;;;;;;;;9.00;99.90;;;-144.05;66.68;125687.94;5053209;28;20129;-82
2023/01/03 10:12:05;;;;;;;7.53;2.42;;;8.90;99.90;;;-144.05;67.81;125687.94;5068633;28;19919;-81
2023/01/03 10:15:05;;;;;;;7.25;2.78;;;8.80;99.90;;;-144.05;67.24;125687.94;5052731;28;20056;-82
2023/01/03 10:18:49;;;;;;;4.88;2.33;;;8.70;99.90;;;-144.05;67.90;125687.94;5051829;28;20388;-82
2023/01/03 10:21:56;;;;;;;6.63;2.10;;;8.70;99.90;;;-144.05;67.89;125687.94;5033837;28;20037;-82
2023/01/03 10:24:40;;;;;;;7.18;2.45;;;8.80;99.90;;;-144.05;66.29;125687.94;5034841;28;20172;-81
2023/01/03 10:27:21;;;;;;;5.60;2.78;;;9.30;99.90;;;-144.05;65.00;125687.94;5054059;28;20055;-83
2023/01/03 10:30:01;;;;;;;6.38;2.38;;;9.50;99.90;;;-144.05;64.07;125687.94;5053019;28;20036;-83
2023/01/03 10:33:09;;;;;;;3.30;2.00;;;9.60;99.90;;;-144.05;64.82;125687.94;5052758;28;20108;-82
2023/01/03 10:35:36;;;;;;;4.78;2.30;;;9.40;99.90;;;-144.05;65.94;125687.94;5051598;28;20033;-82
2023/01/03 10:38:03;;;;;;;7.00;2.30;;;9.20;99.90;;;-144.05;64.99;125687.94;5051398;28;20025;-82
2023/01/03 10:40:46;;;;;;;4.65;2.38;;;9.30;99.90;;;-144.05;65.17;125687.94;5051295;28;20031;-83
2023/01/03 10:43:19;;;;;;;4.30;2.05;;;9.30;99.90;;;-144.05;65.87;125687.94;5051295;28;20062;-83
2023/01/03 10:46:03;;;;;;;5.40;2.33;;;9.20;99.90;;;-144.05;66.65;125687.94;5051375;28;20029;-82
2023/01/03 10:48:44;;;;;;;6.57;2.70;;;9.10;99.90;;;-144.05;66.64;125687.94;5051384;28;20025;-82
2023/01/03 10:52:08;;;;;;;5.70;1.90;;;8.90;99.90;;;-144.05;66.93;125687.94;5052610;28;20028;-84
2023/01/03 10:54:41;;;;;;;4.95;2.30;;;8.90;99.90;;;-144.05;66.42;125687.94;5049480;28;20195;-81
2023/01/03 10:57:06;;;;;;;6.18;2.00;;;9.30;99.90;;;-144.05;64.73;125687.94;5053065;28;20491;-84
2023/01/03 10:59:34;;;;;;;4.20;2.30;;;9.50;99.90;;;-144.05;64.99;125687.94;5053761;28;20083;-83
2023/01/03 11:02:13;;;;;;;2.72;2.22;;;9.40;99.90;;;-144.05;65.37;125687.94;5053700;28;20032;-83
2023/01/03 11:04:40;;;;;;;5.72;1.98;;;9.20;99.90;;;-144.05;65.99;125687.94;5053091;28;20393;-82
2023/01/03 11:07:12;;;;;;;5.93;1.90;;;9.10;99.90;;;-144.05;67.19;125687.94;5052914;28;20055;-82
2023/01/03 11:09:58;;;;;;;5.93;1.73;;;9.00;99.90;;;-144.05;67.38;125687.94;5054437;28;20029;-82
2023/01/03 11:12:40;;;;;;;6.18;3.03;;;9.00;99.90;;;-144.05;67.23;125687.94;5052613;28;20024;-83
2023/01/03 11:15:38;;;;;;;4.75;1.80;;;9.00;99.90;;;-144.05;66.68;125687.94;5064288;28;20029;-80
2023/01/03 11:18:29;;;;;;;4.28;1.63;;;9.40;99.90;;;-144.05;64.55;125687.94;5072159;28;20117;-83
2023/01/03 11:21:36;;;;;;;4.72;1.70;;;9.90;99.90;;;-144.05;64.87;125687.94;5052245;28;20029;-83
2023/01/03 11:24:44;;;;;;;2.95;1.40;;;9.80;99.90;;;-144.05;65.97;125687.94;5051768;28;20025;-82
2023/01/03 11:28:08;;;;;;;5.70;1.90;;;9.70;99.90;;;-144.05;66.03;125687.94;5050945;28;20493;-83
2023/01/03 11:30:56;;;;;;;5.50;1.50;;;9.60;99.90;;;-144.05;66.61;125687.94;5046262;28;20044;-82
2023/01/03 11:33:53;;;;;;;2.25;1.60;;;9.40;99.90;;;-144.05;66.31;125687.94;5051348;28;20036;-82
2023/01/03 11:36:54;;;;;;;5.47;1.50;;;9.40;99.90;;;-144.05;66.50;125687.94;5054411;28;20036;-85
2023/01/03 11:39:52;;;;;;;4.63;1.80;;;9.40;99.90;;;-144.05;66.41;125687.94;5054731;28;20513;-84
2023/01/03 11:43:05;;;;;;;4.63;2.10;;;9.40;99.90;;;-144.05;66.84;125687.94;5056525;28;20047;-81